sensor_id;sensor_type;location;lat;lon;timestamp;P1;durP1;ratioP1;P2;durP2;ratioP2
52268;SDS011;38224;50.950;4.100;2023-07-28T00:00:24;11.53;;;5.20;;
52268;SDS011;38224;50.950;4.100;2023-07-28T00:02:50;6.32;;;5.10;;
52268;SDS011;38224;50.950;4.100;2023-07-28T00:05:15;7.87;;;4.80;;
52268;SDS011;38224;50.950;4.100;2023-07-28T00:07:40;4.90;;;3.85;;
52268;SDS011;38224;50.950;4.100;2023-07-28T00:10:06;5.78;;;4.78;;
52268;SDS011;38224;50.950;4.100;2023-07-28T00:12:31;4.32;;;3.75;;
52268;SDS011;38224;50.950;4.100;2023-07-28T00:14:56;4.20;;;3.80;;
52268;SDS011;38224;50.950;4.100;2023-07-28T00:17:21;5.53;;;3.80;;
52268;SDS011;38224;50.950;4.100;2023-07-28T00:19:47;4.90;;;3.40;;
52268;SDS011;38224;50.950;4.100;2023-07-28T00:22:12;6.83;;;3.60;;
52268;SDS011;38224;50.950;4.100;2023-07-28T00:24:37;6.30;;;3.87;;
52268;SDS011;38224;50.950;4.100;2023-07-28T00:27:03;6.55;;;3.72;;
52268;SDS011;38224;50.950;4.100;2023-07-28T00:29:28;5.22;;;3.80;;
52268;SDS011;38224;50.950;4.100;2023-07-28T00:31:53;4.87;;;3.70;;
52268;SDS011;38224;50.950;4.100;2023-07-28T00:34:18;8.53;;;4.00;;
52268;SDS011;38224;50.950;4.100;2023-07-28T00:36:44;5.07;;;3.70;;
52268;SDS011;38224;50.950;4.100;2023-07-28T00:39:09;5.90;;;4.17;;
52268;SDS011;38224;50.950;4.100;2023-07-28T00:41:34;5.77;;;4.30;;
52268;SDS011;38224;50.950;4.100;2023-07-28T00:43:59;6.47;;;3.88;;
52268;SDS011;38224;50.950;4.100;2023-07-28T00:46:25;5.23;;;4.03;;
52268;SDS011;38224;50.950;4.100;2023-07-28T00:48:50;5.03;;;3.92;;
52268;SDS011;38224;50.950;4.100;2023-07-28T00:51:16;9.80;;;4.32;;
52268;SDS011;38224;50.950;4.100;2023-07-28T00:53:41;7.32;;;4.25;;
52268;SDS011;38224;50.950;4.100;2023-07-28T00:56:06;5.43;;;4.37;;
52268;SDS011;38224;50.950;4.100;2023-07-28T00:58:32;8.23;;;4.32;;
52268;SDS011;38224;50.950;4.100;2023-07-28T01:00:57;6.68;;;3.80;;
52268;SDS011;38224;50.950;4.100;2023-07-28T01:03:23;6.30;;;4.05;;
52268;SDS011;38224;50.950;4.100;2023-07-28T01:11:03;9.20;;;4.13;;
52268;SDS011;38224;50.950;4.100;2023-07-28T01:13:29;4.53;;;3.50;;
52268;SDS011;38224;50.950;4.100;2023-07-28T01:15:54;6.38;;;3.78;;
52268;SDS011;38224;50.950;4.100;2023-07-28T01:18:19;6.68;;;3.85;;
52268;SDS011;38224;50.950;4.100;2023-07-28T01:20:45;7.00;;;3.95;;
52268;SDS011;38224;50.950;4.100;2023-07-28T01:28:15;4.97;;;3.70;;
52268;SDS011;38224;50.950;4.100;2023-07-28T01:30:41;6.55;;;4.03;;
52268;SDS011;38224;50.950;4.100;2023-07-28T01:33:07;4.40;;;3.30;;
52268;SDS011;38224;50.950;4.100;2023-07-28T01:35:33;5.40;;;3.45;;
52268;SDS011;38224;50.950;4.100;2023-07-28T01:37:58;4.10;;;3.60;;
52268;SDS011;38224;50.950;4.100;2023-07-28T01:40:23;5.78;;;2.75;;
52268;SDS011;38224;50.950;4.100;2023-07-28T01:42:49;3.53;;;2.73;;
52268;SDS011;38224;50.950;4.100;2023-07-28T01:45:14;5.43;;;2.97;;
52268;SDS011;38224;50.950;4.100;2023-07-28T01:47:39;5.90;;;2.85;;
52268;SDS011;38224;50.950;4.100;2023-07-28T01:50:05;4.00;;;3.60;;
52268;SDS011;38224;50.950;4.100;2023-07-28T01:52:30;3.33;;;3.00;;
52268;SDS011;38224;50.950;4.100;2023-07-28T01:54:55;3.50;;;3.20;;
52268;SDS011;38224;50.950;4.100;2023-07-28T01:57:21;3.47;;;3.03;;
52268;SDS011;38224;50.950;4.100;2023-07-28T01:59:47;4.45;;;3.38;;
52268;SDS011;38224;50.950;4.100;2023-07-28T02:02:12;6.18;;;3.67;;
52268;SDS011;38224;50.950;4.100;2023-07-28T02:04:37;5.03;;;3.03;;
52268;SDS011;38224;50.950;4.100;2023-07-28T02:07:02;4.45;;;3.83;;
52268;SDS011;38224;50.950;4.100;2023-07-28T02:09:28;5.63;;;3.20;;
52268;SDS011;38224;50.950;4.100;2023-07-28T02:11:53;10.18;;;3.60;;
52268;SDS011;38224;50.950;4.100;2023-07-28T02:14:18;7.68;;;3.92;;
52268;SDS011;38224;50.950;4.100;2023-07-28T02:16:44;4.55;;;3.50;;
52268;SDS011;38224;50.950;4.100;2023-07-28T02:19:09;3.37;;;2.90;;
52268;SDS011;38224;50.950;4.100;2023-07-28T02:21:34;3.92;;;3.33;;
52268;SDS011;38224;50.950;4.100;2023-07-28T02:24:00;5.03;;;3.60;;
52268;SDS011;38224;50.950;4.100;2023-07-28T02:26:25;4.10;;;3.17;;
52268;SDS011;38224;50.950;4.100;2023-07-28T02:28:50;4.47;;;2.80;;
52268;SDS011;38224;50.950;4.100;2023-07-28T02:31:15;5.13;;;2.93;;
52268;SDS011;38224;50.950;4.100;2023-07-28T02:33:41;6.07;;;3.00;;
52268;SDS011;38224;50.950;4.100;2023-07-28T02:36:06;5.67;;;2.90;;
52268;SDS011;38224;50.950;4.100;2023-07-28T02:38:31;3.33;;;3.03;;
52268;SDS011;38224;50.950;4.100;2023-07-28T02:40:56;5.90;;;3.00;;
52268;SDS011;38224;50.950;4.100;2023-07-28T02:43:22;5.33;;;3.27;;
52268;SDS011;38224;50.950;4.100;2023-07-28T02:45:48;3.40;;;3.10;;
52268;SDS011;38224;50.950;4.100;2023-07-28T02:48:13;5.10;;;3.13;;
52268;SDS011;38224;50.950;4.100;2023-07-28T02:50:38;4.18;;;2.97;;
52268;SDS011;38224;50.950;4.100;2023-07-28T02:53:04;4.77;;;3.47;;
52268;SDS011;38224;50.950;4.100;2023-07-28T02:55:29;4.30;;;3.17;;
52268;SDS011;38224;50.950;4.100;2023-07-28T02:57:54;3.97;;;3.27;;
52268;SDS011;38224;50.950;4.100;2023-07-28T03:00:19;11.65;;;4.45;;
52268;SDS011;38224;50.950;4.100;2023-07-28T03:02:45;6.50;;;3.30;;
52268;SDS011;38224;50.950;4.100;2023-07-28T03:05:10;4.63;;;2.53;;
52268;SDS011;38224;50.950;4.100;2023-07-28T03:07:35;4.20;;;2.93;;
52268;SDS011;38224;50.950;4.100;2023-07-28T03:10:00;4.47;;;3.10;;
52268;SDS011;38224;50.950;4.100;2023-07-28T03:12:26;5.90;;;3.00;;
52268;SDS011;38224;50.950;4.100;2023-07-28T03:14:51;7.45;;;3.00;;
52268;SDS011;38224;50.950;4.100;2023-07-28T03:17:16;4.93;;;2.90;;
52268;SDS011;38224;50.950;4.100;2023-07-28T03:19:41;3.10;;;2.87;;
52268;SDS011;38224;50.950;4.100;2023-07-28T03:22:07;5.57;;;2.97;;
52268;SDS011;38224;50.950;4.100;2023-07-28T03:24:32;4.77;;;3.07;;
52268;SDS011;38224;50.950;4.100;2023-07-28T03:26:57;4.57;;;2.73;;
52268;SDS011;38224;50.950;4.100;2023-07-28T03:29:22;3.47;;;2.83;;
52268;SDS011;38224;50.950;4.100;2023-07-28T03:31:47;4.77;;;2.83;;
52268;SDS011;38224;50.950;4.100;2023-07-28T03:34:13;5.33;;;4.13;;
52268;SDS011;38224;50.950;4.100;2023-07-28T03:36:38;3.40;;;3.10;;
52268;SDS011;38224;50.950;4.100;2023-07-28T03:39:03;5.37;;;3.00;;
52268;SDS011;38224;50.950;4.100;2023-07-28T03:41:28;16.90;;;4.97;;
52268;SDS011;38224;50.950;4.100;2023-07-28T03:43:54;5.33;;;3.17;;
52268;SDS011;38224;50.950;4.100;2023-07-28T03:46:19;5.82;;;3.17;;
52268;SDS011;38224;50.950;4.100;2023-07-28T03:48:44;4.07;;;3.20;;
52268;SDS011;38224;50.950;4.100;2023-07-28T03:51:10;6.53;;;3.57;;
52268;SDS011;38224;50.950;4.100;2023-07-28T03:53:35;6.87;;;3.73;;
52268;SDS011;38224;50.950;4.100;2023-07-28T03:56:01;3.67;;;3.37;;
52268;SDS011;38224;50.950;4.100;2023-07-28T03:58:26;7.00;;;3.28;;
52268;SDS011;38224;50.950;4.100;2023-07-28T04:00:52;4.10;;;3.50;;
52268;SDS011;38224;50.950;4.100;2023-07-28T04:03:18;6.20;;;3.45;;
52268;SDS011;38224;50.950;4.100;2023-07-28T04:05:43;5.18;;;3.65;;
52268;SDS011;38224;50.950;4.100;2023-07-28T04:08:08;3.53;;;3.23;;
52268;SDS011;38224;50.950;4.100;2023-07-28T04:10:34;4.23;;;3.83;;
52268;SDS011;38224;50.950;4.100;2023-07-28T04:12:59;6.30;;;4.10;;
52268;SDS011;38224;50.950;4.100;2023-07-28T04:15:24;6.87;;;3.93;;
52268;SDS011;38224;50.950;4.100;2023-07-28T04:17:49;9.35;;;4.70;;
52268;SDS011;38224;50.950;4.100;2023-07-28T04:20:15;4.77;;;4.37;;
52268;SDS011;38224;50.950;4.100;2023-07-28T04:22:40;5.47;;;3.70;;
52268;SDS011;38224;50.950;4.100;2023-07-28T04:25:05;4.23;;;3.77;;
52268;SDS011;38224;50.950;4.100;2023-07-28T04:27:31;6.47;;;3.60;;
52268;SDS011;38224;50.950;4.100;2023-07-28T04:29:56;4.63;;;4.23;;
52268;SDS011;38224;50.950;4.100;2023-07-28T04:32:21;4.40;;;4.00;;
52268;SDS011;38224;50.950;4.100;2023-07-28T04:34:46;4.50;;;3.95;;
52268;SDS011;38224;50.950;4.100;2023-07-28T04:37:12;5.50;;;4.13;;
52268;SDS011;38224;50.950;4.100;2023-07-28T04:39:37;5.33;;;4.03;;
52268;SDS011;38224;50.950;4.100;2023-07-28T04:42:02;6.38;;;3.88;;
52268;SDS011;38224;50.950;4.100;2023-07-28T04:44:28;4.13;;;3.63;;
52268;SDS011;38224;50.950;4.100;2023-07-28T04:46:53;4.67;;;3.70;;
52268;SDS011;38224;50.950;4.100;2023-07-28T04:49:18;3.77;;;3.20;;
52268;SDS011;38224;50.950;4.100;2023-07-28T04:51:43;4.93;;;3.20;;
52268;SDS011;38224;50.950;4.100;2023-07-28T04:54:08;7.28;;;3.47;;
52268;SDS011;38224;50.950;4.100;2023-07-28T04:56:34;7.50;;;3.90;;
52268;SDS011;38224;50.950;4.100;2023-07-28T04:58:59;4.73;;;3.10;;
52268;SDS011;38224;50.950;4.100;2023-07-28T05:01:24;3.80;;;3.38;;
52268;SDS011;38224;50.950;4.100;2023-07-28T05:03:50;10.50;;;3.53;;
52268;SDS011;38224;50.950;4.100;2023-07-28T05:06:15;6.25;;;4.10;;
52268;SDS011;38224;50.950;4.100;2023-07-28T05:08:40;9.02;;;3.75;;
52268;SDS011;38224;50.950;4.100;2023-07-28T05:11:06;5.77;;;3.60;;
52268;SDS011;38224;50.950;4.100;2023-07-28T05:13:31;5.33;;;4.33;;
52268;SDS011;38224;50.950;4.100;2023-07-28T05:15:56;5.57;;;4.00;;
52268;SDS011;38224;50.950;4.100;2023-07-28T05:18:21;8.85;;;4.85;;
52268;SDS011;38224;50.950;4.100;2023-07-28T05:20:47;8.30;;;4.35;;
52268;SDS011;38224;50.950;4.100;2023-07-28T05:23:12;8.37;;;5.10;;
52268;SDS011;38224;50.950;4.100;2023-07-28T05:25:37;8.70;;;5.97;;
52268;SDS011;38224;50.950;4.100;2023-07-28T05:28:02;8.27;;;5.20;;
52268;SDS011;38224;50.950;4.100;2023-07-28T05:30:28;8.77;;;5.15;;
52268;SDS011;38224;50.950;4.100;2023-07-28T05:32:54;9.03;;;5.07;;
52268;SDS011;38224;50.950;4.100;2023-07-28T05:35:19;10.57;;;4.40;;
52268;SDS011;38224;50.950;4.100;2023-07-28T05:37:45;6.00;;;3.88;;
52268;SDS011;38224;50.950;4.100;2023-07-28T05:40:11;8.73;;;4.70;;
52268;SDS011;38224;50.950;4.100;2023-07-28T05:42:37;5.40;;;3.42;;
52268;SDS011;38224;50.950;4.100;2023-07-28T05:45:02;5.60;;;3.87;;
52268;SDS011;38224;50.950;4.100;2023-07-28T05:47:28;3.95;;;2.88;;
52268;SDS011;38224;50.950;4.100;2023-07-28T05:49:53;3.38;;;2.30;;
52268;SDS011;38224;50.950;4.100;2023-07-28T05:52:19;4.23;;;1.77;;
52268;SDS011;38224;50.950;4.100;2023-07-28T05:54:44;1.20;;;1.10;;
52268;SDS011;38224;50.950;4.100;2023-07-28T05:57:09;4.30;;;1.00;;
52268;SDS011;38224;50.950;4.100;2023-07-28T05:59:35;1.73;;;1.30;;
52268;SDS011;38224;50.950;4.100;2023-07-28T06:02:00;1.67;;;1.05;;
52268;SDS011;38224;50.950;4.100;2023-07-28T06:04:26;1.30;;;1.20;;
52268;SDS011;38224;50.950;4.100;2023-07-28T06:06:51;1.43;;;1.00;;
52268;SDS011;38224;50.950;4.100;2023-07-28T06:09:16;2.03;;;1.13;;
52268;SDS011;38224;50.950;4.100;2023-07-28T06:11:42;2.70;;;0.93;;
52268;SDS011;38224;50.950;4.100;2023-07-28T06:14:07;1.10;;;1.00;;
52268;SDS011;38224;50.950;4.100;2023-07-28T06:16:32;4.70;;;1.35;;
52268;SDS011;38224;50.950;4.100;2023-07-28T06:18:58;1.87;;;1.40;;
52268;SDS011;38224;50.950;4.100;2023-07-28T06:21:23;3.43;;;0.90;;
52268;SDS011;38224;50.950;4.100;2023-07-28T06:23:48;1.23;;;0.90;;
52268;SDS011;38224;50.950;4.100;2023-07-28T06:26:13;2.95;;;1.25;;
52268;SDS011;38224;50.950;4.100;2023-07-28T06:28:39;1.55;;;1.00;;
52268;SDS011;38224;50.950;4.100;2023-07-28T06:31:04;1.83;;;1.30;;
52268;SDS011;38224;50.950;4.100;2023-07-28T06:33:29;1.13;;;1.00;;
52268;SDS011;38224;50.950;4.100;2023-07-28T06:35:55;2.05;;;0.90;;
52268;SDS011;38224;50.950;4.100;2023-07-28T06:38:20;2.83;;;0.60;;
52268;SDS011;38224;50.950;4.100;2023-07-28T06:40:45;4.28;;;0.75;;
52268;SDS011;38224;50.950;4.100;2023-07-28T06:43:11;2.15;;;0.70;;
52268;SDS011;38224;50.950;4.100;2023-07-28T06:45:36;1.30;;;0.85;;
52268;SDS011;38224;50.950;4.100;2023-07-28T06:48:01;0.80;;;0.63;;
52268;SDS011;38224;50.950;4.100;2023-07-28T06:50:26;1.93;;;0.93;;
52268;SDS011;38224;50.950;4.100;2023-07-28T06:52:52;1.23;;;0.60;;
52268;SDS011;38224;50.950;4.100;2023-07-28T06:55:17;2.25;;;1.10;;
52268;SDS011;38224;50.950;4.100;2023-07-28T06:57:43;1.35;;;0.90;;
52268;SDS011;38224;50.950;4.100;2023-07-28T07:00:08;6.63;;;0.82;;
52268;SDS011;38224;50.950;4.100;2023-07-28T07:02:37;1.45;;;0.80;;
52268;SDS011;38224;50.950;4.100;2023-07-28T07:05:02;1.00;;;0.90;;
52268;SDS011;38224;50.950;4.100;2023-07-28T07:07:27;3.25;;;0.93;;
52268;SDS011;38224;50.950;4.100;2023-07-28T07:09:53;1.17;;;0.88;;
52268;SDS011;38224;50.950;4.100;2023-07-28T07:12:18;1.33;;;0.77;;
52268;SDS011;38224;50.950;4.100;2023-07-28T07:14:45;4.05;;;0.80;;
52268;SDS011;38224;50.950;4.100;2023-07-28T07:17:10;4.18;;;1.05;;
52268;SDS011;38224;50.950;4.100;2023-07-28T07:19:36;4.17;;;1.20;;
52268;SDS011;38224;50.950;4.100;2023-07-28T07:22:01;3.40;;;1.27;;
52268;SDS011;38224;50.950;4.100;2023-07-28T07:24:27;1.10;;;0.85;;
52268;SDS011;38224;50.950;4.100;2023-07-28T07:26:52;2.28;;;1.60;;
52268;SDS011;38224;50.950;4.100;2023-07-28T07:29:17;2.80;;;1.10;;
52268;SDS011;38224;50.950;4.100;2023-07-28T07:31:42;2.22;;;0.90;;
52268;SDS011;38224;50.950;4.100;2023-07-28T07:34:08;3.83;;;1.63;;
52268;SDS011;38224;50.950;4.100;2023-07-28T07:36:33;2.17;;;0.90;;
52268;SDS011;38224;50.950;4.100;2023-07-28T07:38:58;1.42;;;1.10;;
52268;SDS011;38224;50.950;4.100;2023-07-28T07:41:24;1.77;;;0.98;;
52268;SDS011;38224;50.950;4.100;2023-07-28T07:43:50;1.35;;;0.95;;
52268;SDS011;38224;50.950;4.100;2023-07-28T07:46:15;1.65;;;0.90;;
52268;SDS011;38224;50.950;4.100;2023-07-28T07:48:41;1.20;;;1.10;;
52268;SDS011;38224;50.950;4.100;2023-07-28T07:51:07;1.77;;;1.00;;
52268;SDS011;38224;50.950;4.100;2023-07-28T07:53:33;2.25;;;0.90;;
52268;SDS011;38224;50.950;4.100;2023-07-28T07:55:58;2.00;;;0.88;;
52268;SDS011;38224;50.950;4.100;2023-07-28T07:58:24;1.48;;;1.00;;
52268;SDS011;38224;50.950;4.100;2023-07-28T08:00:49;3.78;;;1.10;;
52268;SDS011;38224;50.950;4.100;2023-07-28T08:03:14;1.88;;;0.95;;
52268;SDS011;38224;50.950;4.100;2023-07-28T08:05:40;3.30;;;0.95;;
52268;SDS011;38224;50.950;4.100;2023-07-28T08:08:05;2.92;;;0.95;;
52268;SDS011;38224;50.950;4.100;2023-07-28T08:10:32;5.18;;;1.40;;
52268;SDS011;38224;50.950;4.100;2023-07-28T08:12:58;1.27;;;0.88;;
52268;SDS011;38224;50.950;4.100;2023-07-28T08:15:24;2.08;;;1.00;;
52268;SDS011;38224;50.950;4.100;2023-07-28T08:17:49;4.20;;;1.02;;
52268;SDS011;38224;50.950;4.100;2023-07-28T08:20:15;3.75;;;1.25;;
52268;SDS011;38224;50.950;4.100;2023-07-28T08:22:40;1.40;;;1.20;;
52268;SDS011;38224;50.950;4.100;2023-07-28T08:25:06;2.92;;;1.20;;
52268;SDS011;38224;50.950;4.100;2023-07-28T08:27:31;4.40;;;1.13;;
52268;SDS011;38224;50.950;4.100;2023-07-28T08:29:56;4.50;;;1.00;;
52268;SDS011;38224;50.950;4.100;2023-07-28T08:32:21;1.00;;;0.90;;
52268;SDS011;38224;50.950;4.100;2023-07-28T08:34:47;1.20;;;0.80;;
52268;SDS011;38224;50.950;4.100;2023-07-28T08:37:12;4.20;;;1.02;;
52268;SDS011;38224;50.950;4.100;2023-07-28T08:39:38;2.58;;;1.20;;
52268;SDS011;38224;50.950;4.100;2023-07-28T08:42:03;3.03;;;0.83;;
52268;SDS011;38224;50.950;4.100;2023-07-28T08:44:30;1.48;;;1.00;;
52268;SDS011;38224;50.950;4.100;2023-07-28T08:46:56;3.42;;;1.10;;
52268;SDS011;38224;50.950;4.100;2023-07-28T08:49:22;1.63;;;1.00;;
52268;SDS011;38224;50.950;4.100;2023-07-28T08:51:50;1.08;;;0.73;;
52268;SDS011;38224;50.950;4.100;2023-07-28T08:54:16;3.08;;;0.90;;
52268;SDS011;38224;50.950;4.100;2023-07-28T08:56:42;2.33;;;0.95;;
52268;SDS011;38224;50.950;4.100;2023-07-28T08:59:08;2.83;;;1.00;;
52268;SDS011;38224;50.950;4.100;2023-07-28T09:01:38;3.05;;;1.10;;
52268;SDS011;38224;50.950;4.100;2023-07-28T09:04:06;1.80;;;1.00;;
52268;SDS011;38224;50.950;4.100;2023-07-28T09:06:34;2.67;;;0.70;;
52268;SDS011;38224;50.950;4.100;2023-07-28T09:08:59;1.42;;;1.10;;
52268;SDS011;38224;50.950;4.100;2023-07-28T09:11:25;1.52;;;0.80;;
52268;SDS011;38224;50.950;4.100;2023-07-28T09:13:55;1.30;;;0.77;;
52268;SDS011;38224;50.950;4.100;2023-07-28T09:16:23;2.10;;;0.80;;
52268;SDS011;38224;50.950;4.100;2023-07-28T09:18:49;0.82;;;0.60;;
52268;SDS011;38224;50.950;4.100;2023-07-28T09:21:21;2.45;;;0.80;;
52268;SDS011;38224;50.950;4.100;2023-07-28T09:23:47;1.13;;;0.70;;
52268;SDS011;38224;50.950;4.100;2023-07-28T09:26:13;0.63;;;0.50;;
52268;SDS011;38224;50.950;4.100;2023-07-28T09:28:39;0.65;;;0.63;;
52268;SDS011;38224;50.950;4.100;2023-07-28T09:31:05;0.93;;;0.52;;
52268;SDS011;38224;50.950;4.100;2023-07-28T09:33:31;3.13;;;0.60;;
52268;SDS011;38224;50.950;4.100;2023-07-28T09:35:56;1.02;;;0.50;;
52268;SDS011;38224;50.950;4.100;2023-07-28T09:38:22;1.85;;;0.73;;
52268;SDS011;38224;50.950;4.100;2023-07-28T09:40:49;2.10;;;0.75;;
52268;SDS011;38224;50.950;4.100;2023-07-28T09:43:14;6.05;;;0.85;;
52268;SDS011;38224;50.950;4.100;2023-07-28T09:45:40;1.10;;;0.70;;
52268;SDS011;38224;50.950;4.100;2023-07-28T09:48:06;1.63;;;0.90;;
52268;SDS011;38224;50.950;4.100;2023-07-28T09:50:36;1.80;;;0.73;;
52268;SDS011;38224;50.950;4.100;2023-07-28T09:53:02;2.80;;;0.85;;
52268;SDS011;38224;50.950;4.100;2023-07-28T09:55:28;1.55;;;0.82;;
52268;SDS011;38224;50.950;4.100;2023-07-28T09:57:54;3.80;;;0.65;;
52268;SDS011;38224;50.950;4.100;2023-07-28T10:00:20;1.02;;;0.70;;
52268;SDS011;38224;50.950;4.100;2023-07-28T10:02:45;1.00;;;0.90;;
52268;SDS011;38224;50.950;4.100;2023-07-28T10:05:11;1.98;;;0.85;;
52268;SDS011;38224;50.950;4.100;2023-07-28T10:07:38;0.95;;;0.82;;
52268;SDS011;38224;50.950;4.100;2023-07-28T10:10:04;5.00;;;1.20;;
52268;SDS011;38224;50.950;4.100;2023-07-28T10:12:39;2.08;;;1.10;;
52268;SDS011;38224;50.950;4.100;2023-07-28T10:15:04;2.08;;;0.93;;
52268;SDS011;38224;50.950;4.100;2023-07-28T10:17:34;2.55;;;0.82;;
52268;SDS011;38224;50.950;4.100;2023-07-28T10:20:26;1.23;;;0.77;;
52268;SDS011;38224;50.950;4.100;2023-07-28T10:22:44;2.10;;;0.95;;
52268;SDS011;38224;50.950;4.100;2023-07-28T10:25:10;1.00;;;0.77;;
52268;SDS011;38224;50.950;4.100;2023-07-28T10:30:02;2.53;;;0.75;;
52268;SDS011;38224;50.950;4.100;2023-07-28T10:32:33;1.75;;;1.15;;
52268;SDS011;38224;50.950;4.100;2023-07-28T10:35:05;1.05;;;0.70;;
52268;SDS011;38224;50.950;4.100;2023-07-28T10:37:32;2.13;;;0.82;;
52268;SDS011;38224;50.950;4.100;2023-07-28T10:40:42;4.30;;;0.80;;
52268;SDS011;38224;50.950;4.100;2023-07-28T10:42:46;3.35;;;1.10;;
52268;SDS011;38224;50.950;4.100;2023-07-28T10:45:11;1.70;;;0.80;;
52268;SDS011;38224;50.950;4.100;2023-07-28T10:47:37;1.95;;;0.75;;
52268;SDS011;38224;50.950;4.100;2023-07-28T10:50:03;1.27;;;0.77;;
52268;SDS011;38224;50.950;4.100;2023-07-28T10:52:29;1.35;;;0.80;;
52268;SDS011;38224;50.950;4.100;2023-07-28T10:54:54;3.23;;;0.93;;
52268;SDS011;38224;50.950;4.100;2023-07-28T10:57:19;1.83;;;0.73;;
52268;SDS011;38224;50.950;4.100;2023-07-28T10:59:45;3.60;;;0.88;;
52268;SDS011;38224;50.950;4.100;2023-07-28T11:02:14;5.70;;;1.63;;
52268;SDS011;38224;50.950;4.100;2023-07-28T11:04:45;1.02;;;0.77;;
52268;SDS011;38224;50.950;4.100;2023-07-28T11:07:11;2.53;;;0.80;;
52268;SDS011;38224;50.950;4.100;2023-07-28T11:09:36;1.63;;;0.80;;
52268;SDS011;38224;50.950;4.100;2023-07-28T11:12:01;2.30;;;0.87;;
52268;SDS011;38224;50.950;4.100;2023-07-28T11:14:27;0.77;;;0.60;;
52268;SDS011;38224;50.950;4.100;2023-07-28T11:16:54;1.98;;;0.75;;
52268;SDS011;38224;50.950;4.100;2023-07-28T11:19:20;3.17;;;0.80;;
52268;SDS011;38224;50.950;4.100;2023-07-28T11:21:49;1.65;;;0.70;;
52268;SDS011;38224;50.950;4.100;2023-07-28T11:24:18;1.25;;;0.70;;
52268;SDS011;38224;50.950;4.100;2023-07-28T11:26:43;2.33;;;0.60;;
52268;SDS011;38224;50.950;4.100;2023-07-28T11:29:11;1.55;;;0.63;;
52268;SDS011;38224;50.950;4.100;2023-07-28T11:31:36;0.70;;;0.50;;
52268;SDS011;38224;50.950;4.100;2023-07-28T11:34:01;2.40;;;0.70;;
52268;SDS011;38224;50.950;4.100;2023-07-28T11:36:27;4.22;;;1.00;;
52268;SDS011;38224;50.950;4.100;2023-07-28T11:38:53;2.55;;;1.00;;
52268;SDS011;38224;50.950;4.100;2023-07-28T11:41:20;2.15;;;0.70;;
52268;SDS011;38224;50.950;4.100;2023-07-28T11:43:46;1.63;;;0.60;;
52268;SDS011;38224;50.950;4.100;2023-07-28T11:51:38;1.40;;;0.70;;
52268;SDS011;38224;50.950;4.100;2023-07-28T11:54:04;2.15;;;1.10;;
52268;SDS011;38224;50.950;4.100;2023-07-28T11:56:30;1.15;;;0.60;;
52268;SDS011;38224;50.950;4.100;2023-07-28T11:58:56;1.88;;;0.90;;
52268;SDS011;38224;50.950;4.100;2023-07-28T12:01:21;2.00;;;0.95;;
52268;SDS011;38224;50.950;4.100;2023-07-28T12:03:47;1.65;;;0.70;;
52268;SDS011;38224;50.950;4.100;2023-07-28T12:06:12;2.70;;;0.80;;
52268;SDS011;38224;50.950;4.100;2023-07-28T12:08:37;1.77;;;0.73;;
52268;SDS011;38224;50.950;4.100;2023-07-28T12:11:03;2.80;;;1.48;;
52268;SDS011;38224;50.950;4.100;2023-07-28T12:13:28;5.63;;;3.30;;
52268;SDS011;38224;50.950;4.100;2023-07-28T12:15:54;12.50;;;7.05;;
52268;SDS011;38224;50.950;4.100;2023-07-28T12:18:19;25.73;;;14.15;;
52268;SDS011;38224;50.950;4.100;2023-07-28T12:20:49;20.60;;;12.23;;
52268;SDS011;38224;50.950;4.100;2023-07-28T12:23:16;7.18;;;3.85;;
52268;SDS011;38224;50.950;4.100;2023-07-28T12:25:41;2.55;;;1.23;;
52268;SDS011;38224;50.950;4.100;2023-07-28T12:28:07;1.70;;;1.00;;
52268;SDS011;38224;50.950;4.100;2023-07-28T12:30:33;2.60;;;1.25;;
52268;SDS011;38224;50.950;4.100;2023-07-28T12:32:58;1.77;;;0.93;;
52268;SDS011;38224;50.950;4.100;2023-07-28T12:35:24;1.70;;;1.05;;
52268;SDS011;38224;50.950;4.100;2023-07-28T12:37:50;2.13;;;1.10;;
52268;SDS011;38224;50.950;4.100;2023-07-28T12:40:16;3.95;;;1.05;;
52268;SDS011;38224;50.950;4.100;2023-07-28T12:42:42;1.95;;;1.00;;
52268;SDS011;38224;50.950;4.100;2023-07-28T12:45:07;6.10;;;1.85;;
52268;SDS011;38224;50.950;4.100;2023-07-28T12:47:33;6.70;;;0.90;;
52268;SDS011;38224;50.950;4.100;2023-07-28T12:49:58;2.13;;;1.00;;
52268;SDS011;38224;50.950;4.100;2023-07-28T12:52:23;4.57;;;1.10;;
52268;SDS011;38224;50.950;4.100;2023-07-28T12:54:49;2.65;;;1.15;;
52268;SDS011;38224;50.950;4.100;2023-07-28T12:57:14;4.63;;;1.23;;
52268;SDS011;38224;50.950;4.100;2023-07-28T12:59:39;3.83;;;0.80;;
52268;SDS011;38224;50.950;4.100;2023-07-28T13:02:05;2.83;;;0.70;;
52268;SDS011;38224;50.950;4.100;2023-07-28T13:04:30;1.80;;;1.17;;
52268;SDS011;38224;50.950;4.100;2023-07-28T13:06:56;3.83;;;1.63;;
52268;SDS011;38224;50.950;4.100;2023-07-28T13:09:21;1.77;;;1.00;;
52268;SDS011;38224;50.950;4.100;2023-07-28T13:11:46;2.47;;;1.20;;
52268;SDS011;38224;50.950;4.100;2023-07-28T13:14:12;1.60;;;0.83;;
52268;SDS011;38224;50.950;4.100;2023-07-28T13:16:37;1.30;;;0.87;;
52268;SDS011;38224;50.950;4.100;2023-07-28T13:19:03;1.25;;;0.80;;
52268;SDS011;38224;50.950;4.100;2023-07-28T13:21:28;6.38;;;1.42;;
52268;SDS011;38224;50.950;4.100;2023-07-28T13:23:53;1.90;;;0.97;;
52268;SDS011;38224;50.950;4.100;2023-07-28T13:26:19;3.47;;;0.93;;
52268;SDS011;38224;50.950;4.100;2023-07-28T13:28:44;1.50;;;1.10;;
52268;SDS011;38224;50.950;4.100;2023-07-28T13:31:12;2.65;;;0.98;;
52268;SDS011;38224;50.950;4.100;2023-07-28T13:33:37;1.70;;;1.08;;
52268;SDS011;38224;50.950;4.100;2023-07-28T13:36:03;1.25;;;1.15;;
52268;SDS011;38224;50.950;4.100;2023-07-28T13:38:32;1.70;;;1.27;;
52268;SDS011;38224;50.950;4.100;2023-07-28T13:40:57;3.10;;;0.90;;
52268;SDS011;38224;50.950;4.100;2023-07-28T13:43:22;2.77;;;1.33;;
52268;SDS011;38224;50.950;4.100;2023-07-28T13:45:47;1.70;;;1.10;;
52268;SDS011;38224;50.950;4.100;2023-07-28T13:48:13;2.17;;;1.02;;
52268;SDS011;38224;50.950;4.100;2023-07-28T13:50:38;2.70;;;1.20;;
52268;SDS011;38224;50.950;4.100;2023-07-28T13:53:03;1.70;;;1.07;;
52268;SDS011;38224;50.950;4.100;2023-07-28T13:55:28;2.40;;;1.23;;
52268;SDS011;38224;50.950;4.100;2023-07-28T13:57:54;3.63;;;1.67;;
52268;SDS011;38224;50.950;4.100;2023-07-28T14:00:19;2.33;;;1.40;;
52268;SDS011;38224;50.950;4.100;2023-07-28T14:02:44;3.73;;;1.33;;
52268;SDS011;38224;50.950;4.100;2023-07-28T14:05:09;2.10;;;1.30;;
52268;SDS011;38224;50.950;4.100;2023-07-28T14:07:35;2.40;;;1.00;;
52268;SDS011;38224;50.950;4.100;2023-07-28T14:10:00;2.13;;;1.10;;
52268;SDS011;38224;50.950;4.100;2023-07-28T14:12:26;1.58;;;1.00;;
52268;SDS011;38224;50.950;4.100;2023-07-28T14:14:51;1.70;;;1.03;;
52268;SDS011;38224;50.950;4.100;2023-07-28T14:17:16;3.67;;;1.10;;
52268;SDS011;38224;50.950;4.100;2023-07-28T14:19:41;4.72;;;1.50;;
52268;SDS011;38224;50.950;4.100;2023-07-28T14:22:07;4.40;;;1.20;;
52268;SDS011;38224;50.950;4.100;2023-07-28T14:24:32;2.55;;;1.20;;
52268;SDS011;38224;50.950;4.100;2023-07-28T14:26:57;2.47;;;1.40;;
52268;SDS011;38224;50.950;4.100;2023-07-28T14:29:23;2.23;;;1.33;;
52268;SDS011;38224;50.950;4.100;2023-07-28T14:31:48;4.35;;;1.30;;
52268;SDS011;38224;50.950;4.100;2023-07-28T14:34:13;6.50;;;1.35;;
52268;SDS011;38224;50.950;4.100;2023-07-28T14:36:39;3.03;;;1.40;;
52268;SDS011;38224;50.950;4.100;2023-07-28T14:39:04;1.70;;;0.90;;
52268;SDS011;38224;50.950;4.100;2023-07-28T14:41:30;4.13;;;1.38;;
52268;SDS011;38224;50.950;4.100;2023-07-28T14:43:55;1.25;;;1.02;;
52268;SDS011;38224;50.950;4.100;2023-07-28T14:46:20;2.00;;;1.30;;
52268;SDS011;38224;50.950;4.100;2023-07-28T14:48:47;1.50;;;0.93;;
52268;SDS011;38224;50.950;4.100;2023-07-28T14:51:12;1.60;;;1.10;;
52268;SDS011;38224;50.950;4.100;2023-07-28T14:53:38;3.13;;;1.33;;
52268;SDS011;38224;50.950;4.100;2023-07-28T14:56:05;6.63;;;1.30;;